sensor_id;sensor_type;location;lat;lon;timestamp;P1;durP1;ratioP1;P2;durP2;ratioP2
66966;SDS011;53900;51.468;-2.586;2022-12-16T00:01:22;36.10;;;13.10;;
66966;SDS011;53900;51.468;-2.586;2022-12-16T00:03:50;28.37;;;12.37;;
66966;SDS011;53900;51.468;-2.586;2022-12-16T00:06:16;23.17;;;11.07;;
66966;SDS011;53900;51.468;-2.586;2022-12-16T00:08:42;28.93;;;11.80;;
66966;SDS011;53900;51.468;-2.586;2022-12-16T00:11:08;36.57;;;12.10;;
66966;SDS011;53900;51.468;-2.586;2022-12-16T00:13:34;28.13;;;11.27;;
66966;SDS011;53900;51.468;-2.586;2022-12-16T00:16:05;28.03;;;11.23;;
66966;SDS011;53900;51.468;-2.586;2022-12-16T00:18:31;26.43;;;11.37;;
66966;SDS011;53900;51.468;-2.586;2022-12-16T00:20:57;29.87;;;12.10;;
66966;SDS011;53900;51.468;-2.586;2022-12-16T00:23:22;25.33;;;10.60;;
66966;SDS011;53900;51.468;-2.586;2022-12-16T00:25:48;21.17;;;8.83;;
66966;SDS011;53900;51.468;-2.586;2022-12-16T00:28:14;26.80;;;10.53;;
66966;SDS011;53900;51.468;-2.586;2022-12-16T00:30:41;23.77;;;9.87;;
66966;SDS011;53900;51.468;-2.586;2022-12-16T00:33:06;24.33;;;9.30;;
66966;SDS011;53900;51.468;-2.586;2022-12-16T00:35:32;21.17;;;8.87;;
66966;SDS011;53900;51.468;-2.586;2022-12-16T00:37:57;24.10;;;8.57;;
66966;SDS011;53900;51.468;-2.586;2022-12-16T00:40:23;21.37;;;9.20;;
66966;SDS011;53900;51.468;-2.586;2022-12-16T00:42:49;23.33;;;8.97;;
66966;SDS011;53900;51.468;-2.586;2022-12-16T00:45:14;15.00;;;7.40;;
66966;SDS011;53900;51.468;-2.586;2022-12-16T00:47:39;15.97;;;7.73;;
66966;SDS011;53900;51.468;-2.586;2022-12-16T00:50:05;26.93;;;7.57;;
66966;SDS011;53900;51.468;-2.586;2022-12-16T00:52:31;19.73;;;7.93;;
66966;SDS011;53900;51.468;-2.586;2022-12-16T00:54:56;28.53;;;8.33;;
66966;SDS011;53900;51.468;-2.586;2022-12-16T00:57:22;20.27;;;7.50;;
66966;SDS011;53900;51.468;-2.586;2022-12-16T00:59:47;20.13;;;7.87;;
66966;SDS011;53900;51.468;-2.586;2022-12-16T01:02:12;18.63;;;6.90;;
66966;SDS011;53900;51.468;-2.586;2022-12-16T01:04:38;13.63;;;6.83;;
66966;SDS011;53900;51.468;-2.586;2022-12-16T01:07:03;16.47;;;6.80;;
66966;SDS011;53900;51.468;-2.586;2022-12-16T01:09:29;18.80;;;7.63;;
66966;SDS011;53900;51.468;-2.586;2022-12-16T01:11:54;19.57;;;7.50;;
66966;SDS011;53900;51.468;-2.586;2022-12-16T01:14:19;16.30;;;6.50;;
66966;SDS011;53900;51.468;-2.586;2022-12-16T01:16:45;15.00;;;6.37;;
66966;SDS011;53900;51.468;-2.586;2022-12-16T01:19:10;17.57;;;7.10;;
66966;SDS011;53900;51.468;-2.586;2022-12-16T01:21:36;20.50;;;7.00;;
66966;SDS011;53900;51.468;-2.586;2022-12-16T01:24:01;13.83;;;6.90;;
66966;SDS011;53900;51.468;-2.586;2022-12-16T01:26:27;17.47;;;7.23;;
66966;SDS011;53900;51.468;-2.586;2022-12-16T01:28:52;13.97;;;6.63;;
66966;SDS011;53900;51.468;-2.586;2022-12-16T01:31:18;16.57;;;6.23;;
66966;SDS011;53900;51.468;-2.586;2022-12-16T01:33:44;14.50;;;6.80;;
66966;SDS011;53900;51.468;-2.586;2022-12-16T01:36:10;12.67;;;6.00;;
66966;SDS011;53900;51.468;-2.586;2022-12-16T01:38:35;18.53;;;6.50;;
66966;SDS011;53900;51.468;-2.586;2022-12-16T01:41:02;16.00;;;6.53;;
66966;SDS011;53900;51.468;-2.586;2022-12-16T01:43:29;12.33;;;6.27;;
66966;SDS011;53900;51.468;-2.586;2022-12-16T01:46:02;14.03;;;6.57;;
66966;SDS011;53900;51.468;-2.586;2022-12-16T01:48:57;15.60;;;5.57;;
66966;SDS011;53900;51.468;-2.586;2022-12-16T01:54:08;11.10;;;5.43;;
66966;SDS011;53900;51.468;-2.586;2022-12-16T01:56:47;18.83;;;6.10;;
66966;SDS011;53900;51.468;-2.586;2022-12-16T01:59:17;10.33;;;5.97;;
66966;SDS011;53900;51.468;-2.586;2022-12-16T02:01:44;12.73;;;5.90;;
66966;SDS011;53900;51.468;-2.586;2022-12-16T02:04:09;13.33;;;6.20;;
66966;SDS011;53900;51.468;-2.586;2022-12-16T02:06:34;15.73;;;5.50;;
66966;SDS011;53900;51.468;-2.586;2022-12-16T02:09:02;11.87;;;5.07;;
66966;SDS011;53900;51.468;-2.586;2022-12-16T02:17:27;12.90;;;5.60;;
66966;SDS011;53900;51.468;-2.586;2022-12-16T02:20:16;11.52;;;5.88;;
66966;SDS011;53900;51.468;-2.586;2022-12-16T02:40:52;22.27;;;9.60;;
66966;SDS011;53900;51.468;-2.586;2022-12-16T02:43:33;22.07;;;9.87;;
66966;SDS011;53900;51.468;-2.586;2022-12-16T02:46:05;19.67;;;8.63;;
66966;SDS011;53900;51.468;-2.586;2022-12-16T02:48:31;21.50;;;10.33;;
66966;SDS011;53900;51.468;-2.586;2022-12-16T02:50:57;20.20;;;9.13;;
66966;SDS011;53900;51.468;-2.586;2022-12-16T02:53:22;20.43;;;9.23;;
66966;SDS011;53900;51.468;-2.586;2022-12-16T02:58:46;22.37;;;9.03;;
66966;SDS011;53900;51.468;-2.586;2022-12-16T03:04:26;18.52;;;8.43;;
66966;SDS011;53900;51.468;-2.586;2022-12-16T03:06:58;24.50;;;8.93;;
66966;SDS011;53900;51.468;-2.586;2022-12-16T03:09:25;16.47;;;7.80;;
66966;SDS011;53900;51.468;-2.586;2022-12-16T03:11:54;15.90;;;8.37;;
66966;SDS011;53900;51.468;-2.586;2022-12-16T03:14:20;17.23;;;7.93;;
66966;SDS011;53900;51.468;-2.586;2022-12-16T03:16:47;16.93;;;8.00;;
66966;SDS011;53900;51.468;-2.586;2022-12-16T03:19:13;21.63;;;9.30;;
66966;SDS011;53900;51.468;-2.586;2022-12-16T03:21:53;21.23;;;9.57;;
66966;SDS011;53900;51.468;-2.586;2022-12-16T03:24:22;22.83;;;8.23;;
66966;SDS011;53900;51.468;-2.586;2022-12-16T03:27:04;15.53;;;8.00;;
66966;SDS011;53900;51.468;-2.586;2022-12-16T03:29:35;20.77;;;7.80;;
66966;SDS011;53900;51.468;-2.586;2022-12-16T03:32:03;14.85;;;8.00;;
66966;SDS011;53900;51.468;-2.586;2022-12-16T03:34:34;16.70;;;7.90;;
66966;SDS011;53900;51.468;-2.586;2022-12-16T03:37:02;20.00;;;8.95;;
66966;SDS011;53900;51.468;-2.586;2022-12-16T03:39:30;23.97;;;8.93;;
66966;SDS011;53900;51.468;-2.586;2022-12-16T03:41:58;21.60;;;8.40;;
66966;SDS011;53900;51.468;-2.586;2022-12-16T03:44:23;19.70;;;7.93;;
66966;SDS011;53900;51.468;-2.586;2022-12-16T03:46:49;17.07;;;7.33;;
66966;SDS011;53900;51.468;-2.586;2022-12-16T03:49:15;18.90;;;8.87;;
66966;SDS011;53900;51.468;-2.586;2022-12-16T03:51:40;18.03;;;9.03;;
66966;SDS011;53900;51.468;-2.586;2022-12-16T03:54:06;22.37;;;9.30;;
66966;SDS011;53900;51.468;-2.586;2022-12-16T03:56:31;22.80;;;9.17;;
66966;SDS011;53900;51.468;-2.586;2022-12-16T03:58:56;21.23;;;8.70;;
66966;SDS011;53900;51.468;-2.586;2022-12-16T04:01:22;19.17;;;9.10;;
66966;SDS011;53900;51.468;-2.586;2022-12-16T04:03:48;23.30;;;8.40;;
66966;SDS011;53900;51.468;-2.586;2022-12-16T04:06:13;23.43;;;8.43;;
66966;SDS011;53900;51.468;-2.586;2022-12-16T04:08:42;15.70;;;8.33;;
66966;SDS011;53900;51.468;-2.586;2022-12-16T04:11:08;17.50;;;9.40;;
66966;SDS011;53900;51.468;-2.586;2022-12-16T04:13:52;21.40;;;7.77;;
66966;SDS011;53900;51.468;-2.586;2022-12-16T04:16:36;20.63;;;8.17;;
66966;SDS011;53900;51.468;-2.586;2022-12-16T04:19:21;17.83;;;7.67;;
66966;SDS011;53900;51.468;-2.586;2022-12-16T04:22:10;17.63;;;7.80;;
66966;SDS011;53900;51.468;-2.586;2022-12-16T04:24:56;16.00;;;7.50;;
66966;SDS011;53900;51.468;-2.586;2022-12-16T04:27:25;22.20;;;8.37;;
66966;SDS011;53900;51.468;-2.586;2022-12-16T04:29:51;22.10;;;8.53;;
66966;SDS011;53900;51.468;-2.586;2022-12-16T04:36:02;20.57;;;7.93;;
66966;SDS011;53900;51.468;-2.586;2022-12-16T04:38:46;13.97;;;7.27;;
66966;SDS011;53900;51.468;-2.586;2022-12-16T04:41:30;22.80;;;8.93;;
66966;SDS011;53900;51.468;-2.586;2022-12-16T04:44:14;14.40;;;7.60;;
66966;SDS011;53900;51.468;-2.586;2022-12-16T04:47:09;18.00;;;8.03;;
66966;SDS011;53900;51.468;-2.586;2022-12-16T04:49:52;19.33;;;8.07;;
66966;SDS011;53900;51.468;-2.586;2022-12-16T04:52:36;16.93;;;7.83;;
66966;SDS011;53900;51.468;-2.586;2022-12-16T04:55:20;20.40;;;8.47;;
66966;SDS011;53900;51.468;-2.586;2022-12-16T04:58:04;21.57;;;8.17;;
66966;SDS011;53900;51.468;-2.586;2022-12-16T05:00:48;20.67;;;8.27;;
66966;SDS011;53900;51.468;-2.586;2022-12-16T05:03:33;23.90;;;8.40;;
66966;SDS011;53900;51.468;-2.586;2022-12-16T05:06:19;20.30;;;8.77;;
66966;SDS011;53900;51.468;-2.586;2022-12-16T05:09:03;15.73;;;7.50;;
66966;SDS011;53900;51.468;-2.586;2022-12-16T05:11:48;19.47;;;8.20;;
66966;SDS011;53900;51.468;-2.586;2022-12-16T05:14:32;19.80;;;7.70;;
66966;SDS011;53900;51.468;-2.586;2022-12-16T05:17:16;19.77;;;7.97;;
66966;SDS011;53900;51.468;-2.586;2022-12-16T05:20:00;18.50;;;8.57;;
66966;SDS011;53900;51.468;-2.586;2022-12-16T05:22:44;18.00;;;7.87;;
66966;SDS011;53900;51.468;-2.586;2022-12-16T05:25:28;20.13;;;8.87;;
66966;SDS011;53900;51.468;-2.586;2022-12-16T05:28:12;17.07;;;7.57;;
66966;SDS011;53900;51.468;-2.586;2022-12-16T05:30:56;17.37;;;7.27;;
66966;SDS011;53900;51.468;-2.586;2022-12-16T05:33:40;14.70;;;7.77;;
66966;SDS011;53900;51.468;-2.586;2022-12-16T05:36:24;20.03;;;7.37;;
66966;SDS011;53900;51.468;-2.586;2022-12-16T05:39:08;17.40;;;8.30;;
66966;SDS011;53900;51.468;-2.586;2022-12-16T05:41:53;23.43;;;8.20;;
66966;SDS011;53900;51.468;-2.586;2022-12-16T05:44:37;16.87;;;7.73;;
66966;SDS011;53900;51.468;-2.586;2022-12-16T05:47:21;15.67;;;7.47;;
66966;SDS011;53900;51.468;-2.586;2022-12-16T05:50:05;14.10;;;6.80;;
66966;SDS011;53900;51.468;-2.586;2022-12-16T05:52:50;16.90;;;7.30;;
66966;SDS011;53900;51.468;-2.586;2022-12-16T05:55:34;20.30;;;7.67;;
66966;SDS011;53900;51.468;-2.586;2022-12-16T05:58:18;17.27;;;8.33;;
66966;SDS011;53900;51.468;-2.586;2022-12-16T06:01:03;15.77;;;7.17;;
66966;SDS011;53900;51.468;-2.586;2022-12-16T06:03:47;14.33;;;7.17;;
66966;SDS011;53900;51.468;-2.586;2022-12-16T06:06:31;16.77;;;7.67;;
66966;SDS011;53900;51.468;-2.586;2022-12-16T06:09:15;18.00;;;7.37;;
66966;SDS011;53900;51.468;-2.586;2022-12-16T06:11:59;18.30;;;7.83;;
66966;SDS011;53900;51.468;-2.586;2022-12-16T06:14:43;14.07;;;6.67;;
66966;SDS011;53900;51.468;-2.586;2022-12-16T06:17:27;19.43;;;7.50;;
66966;SDS011;53900;51.468;-2.586;2022-12-16T06:20:11;22.70;;;7.23;;
66966;SDS011;53900;51.468;-2.586;2022-12-16T06:22:55;14.43;;;7.60;;
66966;SDS011;53900;51.468;-2.586;2022-12-16T06:25:39;21.63;;;8.30;;
66966;SDS011;53900;51.468;-2.586;2022-12-16T06:28:23;23.27;;;7.50;;
66966;SDS011;53900;51.468;-2.586;2022-12-16T06:31:08;19.90;;;7.30;;
66966;SDS011;53900;51.468;-2.586;2022-12-16T06:33:52;16.17;;;7.70;;
66966;SDS011;53900;51.468;-2.586;2022-12-16T06:36:36;23.90;;;8.10;;
66966;SDS011;53900;51.468;-2.586;2022-12-16T06:39:20;14.00;;;6.77;;
66966;SDS011;53900;51.468;-2.586;2022-12-16T06:42:04;15.13;;;6.83;;
66966;SDS011;53900;51.468;-2.586;2022-12-16T06:44:48;16.70;;;7.43;;
66966;SDS011;53900;51.468;-2.586;2022-12-16T06:47:32;14.20;;;6.77;;
66966;SDS011;53900;51.468;-2.586;2022-12-16T06:50:16;20.53;;;7.00;;
66966;SDS011;53900;51.468;-2.586;2022-12-16T06:53:00;15.00;;;7.53;;
66966;SDS011;53900;51.468;-2.586;2022-12-16T06:55:44;14.30;;;6.80;;
66966;SDS011;53900;51.468;-2.586;2022-12-16T06:58:27;15.13;;;7.60;;
66966;SDS011;53900;51.468;-2.586;2022-12-16T07:01:11;16.13;;;7.43;;
66966;SDS011;53900;51.468;-2.586;2022-12-16T07:03:55;20.27;;;8.03;;
66966;SDS011;53900;51.468;-2.586;2022-12-16T07:06:39;12.10;;;6.90;;
66966;SDS011;53900;51.468;-2.586;2022-12-16T07:09:23;10.97;;;6.20;;
66966;SDS011;53900;51.468;-2.586;2022-12-16T07:12:07;15.23;;;7.10;;
66966;SDS011;53900;51.468;-2.586;2022-12-16T07:14:51;22.03;;;7.70;;
66966;SDS011;53900;51.468;-2.586;2022-12-16T07:17:37;18.33;;;7.60;;
66966;SDS011;53900;51.468;-2.586;2022-12-16T07:20:22;19.17;;;7.03;;
66966;SDS011;53900;51.468;-2.586;2022-12-16T07:23:06;19.23;;;7.97;;
66966;SDS011;53900;51.468;-2.586;2022-12-16T07:25:50;13.80;;;7.57;;
66966;SDS011;53900;51.468;-2.586;2022-12-16T07:28:34;18.60;;;7.97;;
66966;SDS011;53900;51.468;-2.586;2022-12-16T07:31:18;14.43;;;7.20;;
66966;SDS011;53900;51.468;-2.586;2022-12-16T07:34:01;13.13;;;7.67;;
66966;SDS011;53900;51.468;-2.586;2022-12-16T07:36:45;21.33;;;8.03;;
66966;SDS011;53900;51.468;-2.586;2022-12-16T07:39:29;17.70;;;7.53;;
66966;SDS011;53900;51.468;-2.586;2022-12-16T07:42:13;26.07;;;11.57;;
66966;SDS011;53900;51.468;-2.586;2022-12-16T07:44:57;35.33;;;17.27;;
66966;SDS011;53900;51.468;-2.586;2022-12-16T07:47:48;23.10;;;11.57;;
66966;SDS011;53900;51.468;-2.586;2022-12-16T07:50:33;15.53;;;7.40;;
66966;SDS011;53900;51.468;-2.586;2022-12-16T07:53:17;17.67;;;7.23;;
66966;SDS011;53900;51.468;-2.586;2022-12-16T07:56:01;13.30;;;6.97;;
66966;SDS011;53900;51.468;-2.586;2022-12-16T07:58:45;18.87;;;7.60;;
66966;SDS011;53900;51.468;-2.586;2022-12-16T08:01:29;12.67;;;6.90;;
66966;SDS011;53900;51.468;-2.586;2022-12-16T08:04:13;15.07;;;7.20;;
66966;SDS011;53900;51.468;-2.586;2022-12-16T08:06:56;15.77;;;7.97;;
66966;SDS011;53900;51.468;-2.586;2022-12-16T08:09:40;16.60;;;7.27;;
66966;SDS011;53900;51.468;-2.586;2022-12-16T08:12:24;22.37;;;8.10;;
66966;SDS011;53900;51.468;-2.586;2022-12-16T08:15:08;13.33;;;6.83;;
66966;SDS011;53900;51.468;-2.586;2022-12-16T08:17:52;18.27;;;7.67;;
66966;SDS011;53900;51.468;-2.586;2022-12-16T08:20:36;18.17;;;7.70;;
66966;SDS011;53900;51.468;-2.586;2022-12-16T08:23:20;15.30;;;7.77;;
66966;SDS011;53900;51.468;-2.586;2022-12-16T08:26:04;14.83;;;7.90;;
66966;SDS011;53900;51.468;-2.586;2022-12-16T08:28:48;17.20;;;8.07;;
66966;SDS011;53900;51.468;-2.586;2022-12-16T08:31:32;19.30;;;8.07;;
66966;SDS011;53900;51.468;-2.586;2022-12-16T08:34:16;16.13;;;7.77;;
66966;SDS011;53900;51.468;-2.586;2022-12-16T08:37:00;19.23;;;8.60;;
66966;SDS011;53900;51.468;-2.586;2022-12-16T08:39:44;16.00;;;7.97;;
66966;SDS011;53900;51.468;-2.586;2022-12-16T08:42:28;18.90;;;8.50;;
66966;SDS011;53900;51.468;-2.586;2022-12-16T08:45:13;18.93;;;8.73;;
66966;SDS011;53900;51.468;-2.586;2022-12-16T08:47:57;14.77;;;7.90;;
66966;SDS011;53900;51.468;-2.586;2022-12-16T08:50:41;18.57;;;8.53;;
66966;SDS011;53900;51.468;-2.586;2022-12-16T08:53:25;21.20;;;9.10;;
66966;SDS011;53900;51.468;-2.586;2022-12-16T08:56:09;22.17;;;9.53;;
66966;SDS011;53900;51.468;-2.586;2022-12-16T08:58:53;18.97;;;8.93;;
66966;SDS011;53900;51.468;-2.586;2022-12-16T09:01:37;18.73;;;8.30;;
66966;SDS011;53900;51.468;-2.586;2022-12-16T09:04:21;16.83;;;8.87;;
66966;SDS011;53900;51.468;-2.586;2022-12-16T09:07:05;23.70;;;8.70;;
66966;SDS011;53900;51.468;-2.586;2022-12-16T09:09:49;19.97;;;9.53;;
66966;SDS011;53900;51.468;-2.586;2022-12-16T09:12:33;23.80;;;9.23;;
66966;SDS011;53900;51.468;-2.586;2022-12-16T09:15:17;16.57;;;7.97;;
66966;SDS011;53900;51.468;-2.586;2022-12-16T09:18:01;28.33;;;9.23;;
66966;SDS011;53900;51.468;-2.586;2022-12-16T09:20:45;17.47;;;10.37;;
66966;SDS011;53900;51.468;-2.586;2022-12-16T09:23:28;18.77;;;9.87;;
66966;SDS011;53900;51.468;-2.586;2022-12-16T09:26:12;16.50;;;9.37;;
66966;SDS011;53900;51.468;-2.586;2022-12-16T09:28:56;17.50;;;9.20;;
66966;SDS011;53900;51.468;-2.586;2022-12-16T09:31:40;22.53;;;9.63;;
66966;SDS011;53900;51.468;-2.586;2022-12-16T09:34:24;21.20;;;8.00;;
66966;SDS011;53900;51.468;-2.586;2022-12-16T09:37:09;19.37;;;9.23;;
66966;SDS011;53900;51.468;-2.586;2022-12-16T09:39:53;20.03;;;9.17;;
66966;SDS011;53900;51.468;-2.586;2022-12-16T09:45:54;17.13;;;8.77;;
66966;SDS011;53900;51.468;-2.586;2022-12-16T09:51:37;20.23;;;9.33;;
66966;SDS011;53900;51.468;-2.586;2022-12-16T09:54:22;22.53;;;9.60;;
66966;SDS011;53900;51.468;-2.586;2022-12-16T09:57:08;27.53;;;10.27;;
66966;SDS011;53900;51.468;-2.586;2022-12-16T09:59:54;21.50;;;9.77;;
66966;SDS011;53900;51.468;-2.586;2022-12-16T10:02:42;22.17;;;10.13;;
66966;SDS011;53900;51.468;-2.586;2022-12-16T10:05:29;19.17;;;9.63;;
66966;SDS011;53900;51.468;-2.586;2022-12-16T10:11:17;22.53;;;9.90;;
66966;SDS011;53900;51.468;-2.586;2022-12-16T10:14:12;18.13;;;9.40;;
66966;SDS011;53900;51.468;-2.586;2022-12-16T10:17:03;19.38;;;9.80;;
66966;SDS011;53900;51.468;-2.586;2022-12-16T10:22:45;19.63;;;9.57;;
66966;SDS011;53900;51.468;-2.586;2022-12-16T10:25:52;19.83;;;10.33;;
66966;SDS011;53900;51.468;-2.586;2022-12-16T10:28:44;23.97;;;9.97;;
66966;SDS011;53900;51.468;-2.586;2022-12-16T10:31:32;29.17;;;9.90;;
66966;SDS011;53900;51.468;-2.586;2022-12-16T10:34:29;18.07;;;9.83;;
66966;SDS011;53900;51.468;-2.586;2022-12-16T10:37:17;20.40;;;10.87;;
66966;SDS011;53900;51.468;-2.586;2022-12-16T10:40:04;21.20;;;10.30;;
66966;SDS011;53900;51.468;-2.586;2022-12-16T10:42:56;22.67;;;10.17;;
66966;SDS011;53900;51.468;-2.586;2022-12-16T10:45:44;23.90;;;10.80;;
66966;SDS011;53900;51.468;-2.586;2022-12-16T10:48:31;21.47;;;11.20;;
66966;SDS011;53900;51.468;-2.586;2022-12-16T10:51:17;19.20;;;10.77;;
66966;SDS011;53900;51.468;-2.586;2022-12-16T10:54:12;22.93;;;10.23;;
66966;SDS011;53900;51.468;-2.586;2022-12-16T10:57:08;27.07;;;11.40;;
66966;SDS011;53900;51.468;-2.586;2022-12-16T11:02:54;31.40;;;11.53;;
66966;SDS011;53900;51.468;-2.586;2022-12-16T11:05:54;29.63;;;12.63;;
66966;SDS011;53900;51.468;-2.586;2022-12-16T11:08:42;25.73;;;12.30;;
66966;SDS011;53900;51.468;-2.586;2022-12-16T11:11:28;32.87;;;11.97;;
66966;SDS011;53900;51.468;-2.586;2022-12-16T11:14:21;19.97;;;11.13;;
66966;SDS011;53900;51.468;-2.586;2022-12-16T11:17:15;21.03;;;10.80;;
66966;SDS011;53900;51.468;-2.586;2022-12-16T11:23:06;21.43;;;11.77;;
66966;SDS011;53900;51.468;-2.586;2022-12-16T11:26:11;24.83;;;11.90;;
66966;SDS011;53900;51.468;-2.586;2022-12-16T11:32:23;27.63;;;13.77;;
66966;SDS011;53900;51.468;-2.586;2022-12-16T11:35:11;25.83;;;12.98;;
66966;SDS011;53900;51.468;-2.586;2022-12-16T11:37:58;27.10;;;13.77;;
66966;SDS011;53900;51.468;-2.586;2022-12-16T11:40:43;24.93;;;13.10;;
66966;SDS011;53900;51.468;-2.586;2022-12-16T11:43:27;24.13;;;13.37;;
66966;SDS011;53900;51.468;-2.586;2022-12-16T11:46:13;27.23;;;13.23;;
66966;SDS011;53900;51.468;-2.586;2022-12-16T11:49:02;32.20;;;15.97;;
66966;SDS011;53900;51.468;-2.586;2022-12-16T11:51:56;43.80;;;20.37;;
66966;SDS011;53900;51.468;-2.586;2022-12-16T11:54:57;28.83;;;14.77;;
66966;SDS011;53900;51.468;-2.586;2022-12-16T11:58:03;29.87;;;13.83;;
66966;SDS011;53900;51.468;-2.586;2022-12-16T12:01:02;28.13;;;14.23;;
66966;SDS011;53900;51.468;-2.586;2022-12-16T12:03:47;28.00;;;13.67;;
66966;SDS011;53900;51.468;-2.586;2022-12-16T12:06:50;33.17;;;13.37;;
66966;SDS011;53900;51.468;-2.586;2022-12-16T12:12:59;30.47;;;13.37;;
66966;SDS011;53900;51.468;-2.586;2022-12-16T12:18:49;32.03;;;13.37;;
66966;SDS011;53900;51.468;-2.586;2022-12-16T12:21:38;33.20;;;15.17;;
66966;SDS011;53900;51.468;-2.586;2022-12-16T12:24:36;25.17;;;13.93;;
66966;SDS011;53900;51.468;-2.586;2022-12-16T12:30:15;29.23;;;15.10;;
66966;SDS011;53900;51.468;-2.586;2022-12-16T12:33:05;27.60;;;14.20;;
66966;SDS011;53900;51.468;-2.586;2022-12-16T12:35:56;24.53;;;13.40;;
66966;SDS011;53900;51.468;-2.586;2022-12-16T12:39:03;26.27;;;13.83;;
66966;SDS011;53900;51.468;-2.586;2022-12-16T12:45:02;29.00;;;13.23;;
66966;SDS011;53900;51.468;-2.586;2022-12-16T12:48:10;32.27;;;13.07;;
66966;SDS011;53900;51.468;-2.586;2022-12-16T12:57:00;29.70;;;12.23;;
66966;SDS011;53900;51.468;-2.586;2022-12-16T12:59:57;23.87;;;11.30;;
66966;SDS011;53900;51.468;-2.586;2022-12-16T13:05:35;25.40;;;10.63;;
66966;SDS011;53900;51.468;-2.586;2022-12-16T13:11:19;27.60;;;10.57;;
66966;SDS011;53900;51.468;-2.586;2022-12-16T13:17:13;25.87;;;11.90;;
66966;SDS011;53900;51.468;-2.586;2022-12-16T13:19:58;21.30;;;10.40;;
66966;SDS011;53900;51.468;-2.586;2022-12-16T13:22:42;20.27;;;10.50;;
66966;SDS011;53900;51.468;-2.586;2022-12-16T13:28:41;16.80;;;9.93;;
66966;SDS011;53900;51.468;-2.586;2022-12-16T13:31:25;24.33;;;9.90;;
66966;SDS011;53900;51.468;-2.586;2022-12-16T13:36:56;22.60;;;10.67;;
66966;SDS011;53900;51.468;-2.586;2022-12-16T13:39:41;26.63;;;10.33;;
66966;SDS011;53900;51.468;-2.586;2022-12-16T13:45:33;27.77;;;12.73;;
66966;SDS011;53900;51.468;-2.586;2022-12-16T13:48:26;25.97;;;12.07;;
66966;SDS011;53900;51.468;-2.586;2022-12-16T13:54:40;19.37;;;10.10;;
66966;SDS011;53900;51.468;-2.586;2022-12-16T13:57:28;29.07;;;12.23;;
66966;SDS011;53900;51.468;-2.586;2022-12-16T14:00:23;25.90;;;11.13;;
66966;SDS011;53900;51.468;-2.586;2022-12-16T14:03:18;19.40;;;10.03;;
66966;SDS011;53900;51.468;-2.586;2022-12-16T14:06:07;20.73;;;11.00;;
66966;SDS011;53900;51.468;-2.586;2022-12-16T14:08:53;23.07;;;10.00;;
66966;SDS011;53900;51.468;-2.586;2022-12-16T14:14:58;24.13;;;10.13;;
66966;SDS011;53900;51.468;-2.586;2022-12-16T14:17:53;24.80;;;10.00;;
66966;SDS011;53900;51.468;-2.586;2022-12-16T14:20:43;23.00;;;10.77;;
66966;SDS011;53900;51.468;-2.586;2022-12-16T14:23:33;19.00;;;9.97;;
66966;SDS011;53900;51.468;-2.586;2022-12-16T14:26:45;20.77;;;10.00;;
66966;SDS011;53900;51.468;-2.586;2022-12-16T14:29:30;19.47;;;9.70;;
66966;SDS011;53900;51.468;-2.586;2022-12-16T14:35:13;30.70;;;11.30;;
66966;SDS011;53900;51.468;-2.586;2022-12-16T14:38:09;22.67;;;10.90;;
66966;SDS011;53900;51.468;-2.586;2022-12-16T14:40:57;21.17;;;11.30;;
66966;SDS011;53900;51.468;-2.586;2022-12-16T14:43:41;37.77;;;11.33;;
66966;SDS011;53900;51.468;-2.586;2022-12-16T14:49:17;27.77;;;13.23;;
66966;SDS011;53900;51.468;-2.586;2022-12-16T14:52:23;30.37;;;12.67;;
66966;SDS011;53900;51.468;-2.586;2022-12-16T14:55:09;29.10;;;13.27;;
66966;SDS011;53900;51.468;-2.586;2022-12-16T15:00:46;28.03;;;13.43;;
66966;SDS011;53900;51.468;-2.586;2022-12-16T15:03:41;24.50;;;13.80;;
66966;SDS011;53900;51.468;-2.586;2022-12-16T15:06:28;26.93;;;13.57;;
66966;SDS011;53900;51.468;-2.586;2022-12-16T15:09:28;31.60;;;13.03;;
66966;SDS011;53900;51.468;-2.586;2022-12-16T15:12:23;32.53;;;13.40;;
66966;SDS011;53900;51.468;-2.586;2022-12-16T15:15:19;28.20;;;12.83;;
66966;SDS011;53900;51.468;-2.586;2022-12-16T15:18:21;26.73;;;12.50;;
66966;SDS011;53900;51.468;-2.586;2022-12-16T15:21:07;23.33;;;12.40;;
66966;SDS011;53900;51.468;-2.586;2022-12-16T15:23:51;23.03;;;12.77;;
66966;SDS011;53900;51.468;-2.586;2022-12-16T15:27:11;26.50;;;13.00;;
66966;SDS011;53900;51.468;-2.586;2022-12-16T15:30:02;26.15;;;13.43;;
66966;SDS011;53900;51.468;-2.586;2022-12-16T15:33:35;32.67;;;13.57;;
66966;SDS011;53900;51.468;-2.586;2022-12-16T15:36:27;26.70;;;14.23;;
66966;SDS011;53900;51.468;-2.586;2022-12-16T15:42:00;30.60;;;15.00;;
66966;SDS011;53900;51.468;-2.586;2022-12-16T15:44:46;30.97;;;15.33;;
66966;SDS011;53900;51.468;-2.586;2022-12-16T15:47:33;28.10;;;14.97;;
66966;SDS011;53900;51.468;-2.586;2022-12-16T15:50:23;29.93;;;15.77;;
66966;SDS011;53900;51.468;-2.586;2022-12-16T15:53:22;32.53;;;16.60;;
66966;SDS011;53900;51.468;-2.586;2022-12-16T15:59:21;40.03;;;19.60;;
66966;SDS011;53900;51.468;-2.586;2022-12-16T16:02:18;33.47;;;17.73;;
66966;SDS011;53900;51.468;-2.586;2022-12-16T16:05:40;38.67;;;16.80;;
66966;SDS011;53900;51.468;-2.586;2022-12-16T16:08:18;32.20;;;16.40;;
66966;SDS011;53900;51.468;-2.586;2022-12-16T16:11:03;38.13;;;16.30;;
66966;SDS011;53900;51.468;-2.586;2022-12-16T16:13:47;28.17;;;15.13;;
66966;SDS011;53900;51.468;-2.586;2022-12-16T16:16:31;34.20;;;15.47;;
66966;SDS011;53900;51.468;-2.586;2022-12-16T16:19:19;31.20;;;16.07;;
66966;SDS011;53900;51.468;-2.586;2022-12-16T16:22:12;35.10;;;15.15;;
66966;SDS011;53900;51.468;-2.586;2022-12-16T16:24:57;35.80;;;16.23;;
66966;SDS011;53900;51.468;-2.586;2022-12-16T16:27:41;41.70;;;18.57;;
66966;SDS011;53900;51.468;-2.586;2022-12-16T16:30:25;41.60;;;19.03;;
66966;SDS011;53900;51.468;-2.586;2022-12-16T16:33:08;33.97;;;18.00;;
66966;SDS011;53900;51.468;-2.586;2022-12-16T16:35:52;29.27;;;15.83;;
66966;SDS011;53900;51.468;-2.586;2022-12-16T16:38:36;30.07;;;14.67;;
66966;SDS011;53900;51.468;-2.586;2022-12-16T16:41:20;32.17;;;13.87;;
66966;SDS011;53900;51.468;-2.586;2022-12-16T16:44:04;27.83;;;14.07;;
66966;SDS011;53900;51.468;-2.586;2022-12-16T16:46:49;30.27;;;14.43;;
66966;SDS011;53900;51.468;-2.586;2022-12-16T16:49:34;32.77;;;15.17;;
66966;SDS011;53900;51.468;-2.586;2022-12-16T16:52:22;37.50;;;16.07;;
66966;SDS011;53900;51.468;-2.586;2022-12-16T16:55:13;37.87;;;17.67;;
66966;SDS011;53900;51.468;-2.586;2022-12-16T16:58:04;31.53;;;16.57;;
66966;SDS011;53900;51.468;-2.586;2022-12-16T17:00:49;33.87;;;17.73;;
66966;SDS011;53900;51.468;-2.586;2022-12-16T17:03:33;35.60;;;16.57;;
66966;SDS011;53900;51.468;-2.586;2022-12-16T17:06:17;36.73;;;16.50;;
66966;SDS011;53900;51.468;-2.586;2022-12-16T17:09:01;35.07;;;15.97;;
66966;SDS011;53900;51.468;-2.586;2022-12-16T17:11:45;35.40;;;15.70;;
66966;SDS011;53900;51.468;-2.586;2022-12-16T17:14:29;33.13;;;13.70;;
66966;SDS011;53900;51.468;-2.586;2022-12-16T17:17:13;28.30;;;14.97;;
66966;SDS011;53900;51.468;-2.586;2022-12-16T17:19:57;32.73;;;14.80;;
66966;SDS011;53900;51.468;-2.586;2022-12-16T17:23:01;35.40;;;15.70;;
66966;SDS011;53900;51.468;-2.586;2022-12-16T17:25:44;36.63;;;16.33;;
66966;SDS011;53900;51.468;-2.586;2022-12-16T17:28:28;36.90;;;17.87;;
66966;SDS011;53900;51.468;-2.586;2022-12-16T17:31:12;35.57;;;16.63;;
66966;SDS011;53900;51.468;-2.586;2022-12-16T17:33:56;32.23;;;15.40;;
66966;SDS011;53900;51.468;-2.586;2022-12-16T17:36:40;33.67;;;15.93;;
66966;SDS011;53900;51.468;-2.586;2022-12-16T17:39:44;31.73;;;15.47;;